sensor_id;sensor_type;location;lat;lon;timestamp;P1;durP1;ratioP1;P2;durP2;ratioP2
26062;SDS011;13837;48.562;12.108;2023-02-24T00:01:46;31.67;;;23.70;;
26062;SDS011;13837;48.562;12.108;2023-02-24T00:04:15;35.58;;;23.48;;
26062;SDS011;13837;48.562;12.108;2023-02-24T00:06:42;31.05;;;23.77;;
26062;SDS011;13837;48.562;12.108;2023-02-24T00:09:12;32.03;;;25.02;;
26062;SDS011;13837;48.562;12.108;2023-02-24T00:11:42;33.60;;;24.83;;
26062;SDS011;13837;48.562;12.108;2023-02-24T00:14:10;31.63;;;24.23;;
26062;SDS011;13837;48.562;12.108;2023-02-24T00:16:37;33.95;;;24.58;;
26062;SDS011;13837;48.562;12.108;2023-02-24T00:19:03;35.83;;;24.35;;
26062;SDS011;13837;48.562;12.108;2023-02-24T00:21:31;32.00;;;24.23;;
26062;SDS011;13837;48.562;12.108;2023-02-24T00:23:58;30.55;;;23.27;;
26062;SDS011;13837;48.562;12.108;2023-02-24T00:26:24;28.08;;;22.65;;
26062;SDS011;13837;48.562;12.108;2023-02-24T00:28:51;34.90;;;23.95;;
26062;SDS011;13837;48.562;12.108;2023-02-24T00:31:18;33.63;;;23.98;;
26062;SDS011;13837;48.562;12.108;2023-02-24T00:33:44;29.92;;;22.73;;
26062;SDS011;13837;48.562;12.108;2023-02-24T00:38:38;31.83;;;24.23;;
26062;SDS011;13837;48.562;12.108;2023-02-24T00:41:09;28.02;;;23.08;;
26062;SDS011;13837;48.562;12.108;2023-02-24T00:43:36;29.30;;;23.70;;
26062;SDS011;13837;48.562;12.108;2023-02-24T00:46:03;30.88;;;22.90;;
26062;SDS011;13837;48.562;12.108;2023-02-24T00:48:37;30.45;;;21.70;;
26062;SDS011;13837;48.562;12.108;2023-02-24T00:51:08;31.08;;;23.95;;
26062;SDS011;13837;48.562;12.108;2023-02-24T00:53:34;30.23;;;23.52;;
26062;SDS011;13837;48.562;12.108;2023-02-24T00:56:02;34.28;;;24.23;;
26062;SDS011;13837;48.562;12.108;2023-02-24T00:58:31;30.77;;;24.00;;
26062;SDS011;13837;48.562;12.108;2023-02-24T01:00:58;29.05;;;23.63;;
26062;SDS011;13837;48.562;12.108;2023-02-24T01:03:25;30.17;;;23.63;;
26062;SDS011;13837;48.562;12.108;2023-02-24T01:05:52;31.52;;;22.60;;
26062;SDS011;13837;48.562;12.108;2023-02-24T01:08:18;29.02;;;24.10;;
26062;SDS011;13837;48.562;12.108;2023-02-24T01:13:33;30.17;;;21.73;;
26062;SDS011;13837;48.562;12.108;2023-02-24T01:15:59;28.50;;;22.25;;
26062;SDS011;13837;48.562;12.108;2023-02-24T01:18:28;29.42;;;22.40;;
26062;SDS011;13837;48.562;12.108;2023-02-24T01:20:56;28.70;;;22.75;;
26062;SDS011;13837;48.562;12.108;2023-02-24T01:23:23;31.20;;;22.40;;
26062;SDS011;13837;48.562;12.108;2023-02-24T01:25:50;28.50;;;22.30;;
26062;SDS011;13837;48.562;12.108;2023-02-24T01:28:16;26.38;;;21.20;;
26062;SDS011;13837;48.562;12.108;2023-02-24T01:30:42;27.58;;;22.10;;
26062;SDS011;13837;48.562;12.108;2023-02-24T01:33:09;28.13;;;22.60;;
26062;SDS011;13837;48.562;12.108;2023-02-24T01:35:41;27.15;;;21.70;;
26062;SDS011;13837;48.562;12.108;2023-02-24T01:38:07;30.10;;;22.35;;
26062;SDS011;13837;48.562;12.108;2023-02-24T01:40:35;30.58;;;21.92;;
26062;SDS011;13837;48.562;12.108;2023-02-24T01:43:01;27.67;;;21.67;;
26062;SDS011;13837;48.562;12.108;2023-02-24T01:45:33;28.20;;;20.70;;
26062;SDS011;13837;48.562;12.108;2023-02-24T01:48:05;26.05;;;20.60;;
26062;SDS011;13837;48.562;12.108;2023-02-24T01:50:32;27.95;;;22.02;;
26062;SDS011;13837;48.562;12.108;2023-02-24T01:53:00;25.30;;;21.17;;
26062;SDS011;13837;48.562;12.108;2023-02-24T01:55:47;29.35;;;22.15;;
26062;SDS011;13837;48.562;12.108;2023-02-24T01:58:32;27.55;;;21.73;;
26062;SDS011;13837;48.562;12.108;2023-02-24T02:01:01;28.73;;;22.75;;
26062;SDS011;13837;48.562;12.108;2023-02-24T02:03:33;28.63;;;20.92;;
26062;SDS011;13837;48.562;12.108;2023-02-24T02:06:04;27.85;;;22.08;;
26062;SDS011;13837;48.562;12.108;2023-02-24T02:08:30;30.15;;;22.25;;
26062;SDS011;13837;48.562;12.108;2023-02-24T02:10:57;26.30;;;21.95;;
26062;SDS011;13837;48.562;12.108;2023-02-24T02:13:26;28.88;;;21.73;;
26062;SDS011;13837;48.562;12.108;2023-02-24T02:26:50;31.92;;;24.65;;
26062;SDS011;13837;48.562;12.108;2023-02-24T02:37:27;40.05;;;27.02;;
26062;SDS011;13837;48.562;12.108;2023-02-24T02:42:29;36.58;;;28.48;;
26062;SDS011;13837;48.562;12.108;2023-02-24T02:45:05;38.20;;;28.90;;
26062;SDS011;13837;48.562;12.108;2023-02-24T02:55:23;38.75;;;26.48;;
26062;SDS011;13837;48.562;12.108;2023-02-24T02:57:50;41.88;;;27.63;;
26062;SDS011;13837;48.562;12.108;2023-02-24T03:00:24;37.22;;;28.33;;
26062;SDS011;13837;48.562;12.108;2023-02-24T03:02:54;39.30;;;27.73;;
26062;SDS011;13837;48.562;12.108;2023-02-24T03:05:33;40.88;;;28.60;;
26062;SDS011;13837;48.562;12.108;2023-02-24T03:08:01;38.20;;;27.90;;
26062;SDS011;13837;48.562;12.108;2023-02-24T03:10:29;32.15;;;25.52;;
26062;SDS011;13837;48.562;12.108;2023-02-24T03:12:58;36.10;;;25.80;;
26062;SDS011;13837;48.562;12.108;2023-02-24T03:15:27;33.03;;;25.65;;
26062;SDS011;13837;48.562;12.108;2023-02-24T03:18:05;34.85;;;25.25;;
26062;SDS011;13837;48.562;12.108;2023-02-24T03:20:35;30.65;;;24.58;;
26062;SDS011;13837;48.562;12.108;2023-02-24T03:23:06;33.75;;;25.55;;
26062;SDS011;13837;48.562;12.108;2023-02-24T03:25:41;35.05;;;26.33;;
26062;SDS011;13837;48.562;12.108;2023-02-24T03:28:17;34.45;;;26.00;;
26062;SDS011;13837;48.562;12.108;2023-02-24T03:30:46;36.45;;;25.65;;
26062;SDS011;13837;48.562;12.108;2023-02-24T03:33:18;35.70;;;26.45;;
26062;SDS011;13837;48.562;12.108;2023-02-24T03:35:48;34.80;;;25.83;;
26062;SDS011;13837;48.562;12.108;2023-02-24T03:38:17;40.30;;;27.17;;
26062;SDS011;13837;48.562;12.108;2023-02-24T03:40:44;37.08;;;26.95;;
26062;SDS011;13837;48.562;12.108;2023-02-24T03:43:21;38.30;;;27.42;;
26062;SDS011;13837;48.562;12.108;2023-02-24T03:45:50;36.88;;;26.98;;
26062;SDS011;13837;48.562;12.108;2023-02-24T03:48:17;37.35;;;25.70;;
26062;SDS011;13837;48.562;12.108;2023-02-24T03:50:44;38.67;;;26.98;;
26062;SDS011;13837;48.562;12.108;2023-02-24T03:53:42;36.47;;;25.30;;
26062;SDS011;13837;48.562;12.108;2023-02-24T04:11:53;27.70;;;21.20;;
26062;SDS011;13837;48.562;12.108;2023-02-24T04:14:23;27.13;;;21.38;;
26062;SDS011;13837;48.562;12.108;2023-02-24T04:16:55;26.20;;;21.85;;
26062;SDS011;13837;48.562;12.108;2023-02-24T04:19:26;28.58;;;22.10;;
26062;SDS011;13837;48.562;12.108;2023-02-24T04:21:54;26.85;;;21.27;;
26062;SDS011;13837;48.562;12.108;2023-02-24T04:24:25;32.15;;;23.20;;
26062;SDS011;13837;48.562;12.108;2023-02-24T04:26:52;28.25;;;22.98;;
26062;SDS011;13837;48.562;12.108;2023-02-24T04:29:27;26.42;;;21.05;;
26062;SDS011;13837;48.562;12.108;2023-02-24T04:32:01;28.77;;;22.52;;
26062;SDS011;13837;48.562;12.108;2023-02-24T04:34:29;26.00;;;21.17;;
26062;SDS011;13837;48.562;12.108;2023-02-24T04:36:57;29.15;;;21.45;;
26062;SDS011;13837;48.562;12.108;2023-02-24T04:39:26;30.95;;;22.90;;
26062;SDS011;13837;48.562;12.108;2023-02-24T04:41:55;30.37;;;22.50;;
26062;SDS011;13837;48.562;12.108;2023-02-24T04:44:22;27.83;;;21.23;;
26062;SDS011;13837;48.562;12.108;2023-02-24T04:46:48;30.02;;;22.13;;
26062;SDS011;13837;48.562;12.108;2023-02-24T04:49:15;27.42;;;22.20;;
26062;SDS011;13837;48.562;12.108;2023-02-24T04:51:42;28.83;;;21.02;;
26062;SDS011;13837;48.562;12.108;2023-02-24T04:54:09;27.23;;;22.02;;
26062;SDS011;13837;48.562;12.108;2023-02-24T04:56:38;26.85;;;21.55;;
26062;SDS011;13837;48.562;12.108;2023-02-24T04:59:05;27.15;;;21.08;;
26062;SDS011;13837;48.562;12.108;2023-02-24T05:04:00;26.88;;;20.60;;
26062;SDS011;13837;48.562;12.108;2023-02-24T05:06:26;26.65;;;20.55;;
26062;SDS011;13837;48.562;12.108;2023-02-24T05:08:52;27.10;;;21.52;;
26062;SDS011;13837;48.562;12.108;2023-02-24T05:11:18;28.52;;;21.35;;
26062;SDS011;13837;48.562;12.108;2023-02-24T05:13:44;25.50;;;20.95;;
26062;SDS011;13837;48.562;12.108;2023-02-24T05:16:11;24.30;;;20.38;;
26062;SDS011;13837;48.562;12.108;2023-02-24T05:18:38;22.35;;;19.70;;
26062;SDS011;13837;48.562;12.108;2023-02-24T05:21:14;31.08;;;22.02;;
26062;SDS011;13837;48.562;12.108;2023-02-24T05:24:00;29.83;;;24.05;;
26062;SDS011;13837;48.562;12.108;2023-02-24T05:26:31;30.48;;;22.85;;
26062;SDS011;13837;48.562;12.108;2023-02-24T05:28:59;26.85;;;22.30;;
26062;SDS011;13837;48.562;12.108;2023-02-24T05:31:27;26.23;;;20.15;;
26062;SDS011;13837;48.562;12.108;2023-02-24T05:33:55;25.80;;;20.45;;
26062;SDS011;13837;48.562;12.108;2023-02-24T05:36:26;23.77;;;20.05;;
26062;SDS011;13837;48.562;12.108;2023-02-24T05:38:53;23.40;;;18.40;;
26062;SDS011;13837;48.562;12.108;2023-02-24T05:41:22;22.75;;;19.58;;
26062;SDS011;13837;48.562;12.108;2023-02-24T05:43:57;24.42;;;19.30;;
26062;SDS011;13837;48.562;12.108;2023-02-24T05:48:57;24.73;;;19.08;;
26062;SDS011;13837;48.562;12.108;2023-02-24T05:51:24;23.10;;;18.13;;
26062;SDS011;13837;48.562;12.108;2023-02-24T05:53:50;23.70;;;19.55;;
26062;SDS011;13837;48.562;12.108;2023-02-24T05:56:23;25.38;;;18.45;;
26062;SDS011;13837;48.562;12.108;2023-02-24T05:58:49;21.05;;;18.85;;
26062;SDS011;13837;48.562;12.108;2023-02-24T06:01:26;21.10;;;16.73;;
26062;SDS011;13837;48.562;12.108;2023-02-24T06:03:54;19.77;;;17.67;;
26062;SDS011;13837;48.562;12.108;2023-02-24T06:06:20;21.63;;;17.35;;
26062;SDS011;13837;48.562;12.108;2023-02-24T06:08:47;19.50;;;17.50;;
26062;SDS011;13837;48.562;12.108;2023-02-24T06:11:15;23.60;;;18.50;;
26062;SDS011;13837;48.562;12.108;2023-02-24T06:13:42;22.93;;;18.87;;
26062;SDS011;13837;48.562;12.108;2023-02-24T06:16:12;21.98;;;18.30;;
26062;SDS011;13837;48.562;12.108;2023-02-24T06:18:39;22.75;;;18.08;;
26062;SDS011;13837;48.562;12.108;2023-02-24T06:21:05;23.88;;;19.15;;
26062;SDS011;13837;48.562;12.108;2023-02-24T06:23:31;32.00;;;21.85;;
26062;SDS011;13837;48.562;12.108;2023-02-24T06:26:01;27.77;;;20.60;;
26062;SDS011;13837;48.562;12.108;2023-02-24T06:28:28;31.10;;;22.17;;
26062;SDS011;13837;48.562;12.108;2023-02-24T06:30:54;39.60;;;23.85;;
26062;SDS011;13837;48.562;12.108;2023-02-24T06:33:20;24.45;;;19.20;;
26062;SDS011;13837;48.562;12.108;2023-02-24T06:35:47;25.45;;;20.17;;
26062;SDS011;13837;48.562;12.108;2023-02-24T06:38:13;26.10;;;19.15;;
26062;SDS011;13837;48.562;12.108;2023-02-24T06:40:39;20.35;;;18.17;;
26062;SDS011;13837;48.562;12.108;2023-02-24T06:43:07;20.85;;;18.27;;
26062;SDS011;13837;48.562;12.108;2023-02-24T06:45:35;21.95;;;18.17;;
26062;SDS011;13837;48.562;12.108;2023-02-24T06:48:01;22.33;;;17.95;;
26062;SDS011;13837;48.562;12.108;2023-02-24T06:50:27;21.50;;;18.30;;
26062;SDS011;13837;48.562;12.108;2023-02-24T06:52:54;21.83;;;19.38;;
26062;SDS011;13837;48.562;12.108;2023-02-24T06:55:24;22.67;;;19.45;;
26062;SDS011;13837;48.562;12.108;2023-02-24T06:57:51;24.33;;;20.05;;
26062;SDS011;13837;48.562;12.108;2023-02-24T07:00:21;26.40;;;21.48;;
26062;SDS011;13837;48.562;12.108;2023-02-24T07:02:51;26.70;;;20.55;;
26062;SDS011;13837;48.562;12.108;2023-02-24T07:05:17;31.00;;;21.98;;
26062;SDS011;13837;48.562;12.108;2023-02-24T07:07:44;30.15;;;23.15;;
26062;SDS011;13837;48.562;12.108;2023-02-24T07:10:13;27.77;;;21.65;;
26062;SDS011;13837;48.562;12.108;2023-02-24T07:12:39;29.00;;;22.65;;
26062;SDS011;13837;48.562;12.108;2023-02-24T07:15:06;26.95;;;21.92;;
26062;SDS011;13837;48.562;12.108;2023-02-24T07:17:33;23.33;;;20.23;;
26062;SDS011;13837;48.562;12.108;2023-02-24T07:20:01;24.80;;;20.42;;
26062;SDS011;13837;48.562;12.108;2023-02-24T07:22:36;28.20;;;22.20;;
26062;SDS011;13837;48.562;12.108;2023-02-24T07:25:02;25.83;;;22.02;;
26062;SDS011;13837;48.562;12.108;2023-02-24T07:27:31;26.90;;;22.00;;
26062;SDS011;13837;48.562;12.108;2023-02-24T07:29:57;28.15;;;22.40;;
26062;SDS011;13837;48.562;12.108;2023-02-24T07:32:23;28.35;;;22.30;;
26062;SDS011;13837;48.562;12.108;2023-02-24T07:34:49;26.80;;;21.08;;
26062;SDS011;13837;48.562;12.108;2023-02-24T07:37:15;27.30;;;20.45;;
26062;SDS011;13837;48.562;12.108;2023-02-24T07:39:44;25.67;;;21.42;;
26062;SDS011;13837;48.562;12.108;2023-02-24T07:42:10;26.23;;;20.92;;
26062;SDS011;13837;48.562;12.108;2023-02-24T07:44:43;28.75;;;21.92;;
26062;SDS011;13837;48.562;12.108;2023-02-24T07:47:10;30.65;;;22.55;;
26062;SDS011;13837;48.562;12.108;2023-02-24T07:49:36;28.77;;;22.67;;
26062;SDS011;13837;48.562;12.108;2023-02-24T07:52:03;26.90;;;21.58;;
26062;SDS011;13837;48.562;12.108;2023-02-24T07:54:32;35.15;;;23.17;;
26062;SDS011;13837;48.562;12.108;2023-02-24T07:56:58;29.05;;;22.77;;
26062;SDS011;13837;48.562;12.108;2023-02-24T07:59:25;27.33;;;21.65;;
26062;SDS011;13837;48.562;12.108;2023-02-24T08:01:51;31.15;;;23.20;;
26062;SDS011;13837;48.562;12.108;2023-02-24T08:04:20;32.95;;;23.42;;
26062;SDS011;13837;48.562;12.108;2023-02-24T08:06:47;32.95;;;22.58;;
26062;SDS011;13837;48.562;12.108;2023-02-24T08:09:21;36.40;;;24.27;;
26062;SDS011;13837;48.562;12.108;2023-02-24T08:12:09;32.33;;;21.80;;
26062;SDS011;13837;48.562;12.108;2023-02-24T08:14:35;34.40;;;24.02;;
26062;SDS011;13837;48.562;12.108;2023-02-24T08:17:09;36.58;;;23.58;;
26062;SDS011;13837;48.562;12.108;2023-02-24T08:19:35;29.73;;;22.38;;
26062;SDS011;13837;48.562;12.108;2023-02-24T08:22:05;29.08;;;22.58;;
26062;SDS011;13837;48.562;12.108;2023-02-24T08:24:46;31.45;;;22.48;;
26062;SDS011;13837;48.562;12.108;2023-02-24T08:27:14;30.25;;;22.27;;
26062;SDS011;13837;48.562;12.108;2023-02-24T08:29:45;34.97;;;23.50;;
26062;SDS011;13837;48.562;12.108;2023-02-24T08:35:14;28.20;;;20.88;;
26062;SDS011;13837;48.562;12.108;2023-02-24T08:37:41;35.58;;;23.25;;
26062;SDS011;13837;48.562;12.108;2023-02-24T08:40:12;33.25;;;23.50;;
26062;SDS011;13837;48.562;12.108;2023-02-24T08:42:58;37.60;;;21.90;;
26062;SDS011;13837;48.562;12.108;2023-02-24T08:45:25;33.38;;;21.33;;
26062;SDS011;13837;48.562;12.108;2023-02-24T08:47:53;28.85;;;23.17;;
26062;SDS011;13837;48.562;12.108;2023-02-24T08:50:25;29.55;;;21.95;;
26062;SDS011;13837;48.562;12.108;2023-02-24T08:52:56;30.40;;;21.38;;
26062;SDS011;13837;48.562;12.108;2023-02-24T08:55:23;28.13;;;21.67;;
26062;SDS011;13837;48.562;12.108;2023-02-24T08:57:55;35.35;;;24.02;;
26062;SDS011;13837;48.562;12.108;2023-02-24T09:00:26;30.83;;;22.70;;
26062;SDS011;13837;48.562;12.108;2023-02-24T09:03:12;39.75;;;25.13;;
26062;SDS011;13837;48.562;12.108;2023-02-24T09:08:24;37.28;;;24.38;;
26062;SDS011;13837;48.562;12.108;2023-02-24T09:10:57;39.53;;;24.55;;
26062;SDS011;13837;48.562;12.108;2023-02-24T09:13:23;34.33;;;24.10;;
26062;SDS011;13837;48.562;12.108;2023-02-24T09:16:00;44.05;;;25.88;;
26062;SDS011;13837;48.562;12.108;2023-02-24T09:18:27;45.15;;;25.38;;
26062;SDS011;13837;48.562;12.108;2023-02-24T09:21:09;40.67;;;26.23;;
26062;SDS011;13837;48.562;12.108;2023-02-24T09:23:54;43.53;;;26.63;;
26062;SDS011;13837;48.562;12.108;2023-02-24T09:26:20;41.75;;;26.83;;
26062;SDS011;13837;48.562;12.108;2023-02-24T09:28:47;51.03;;;27.00;;
26062;SDS011;13837;48.562;12.108;2023-02-24T09:31:13;40.17;;;26.08;;
26062;SDS011;13837;48.562;12.108;2023-02-24T09:33:43;49.05;;;27.83;;
26062;SDS011;13837;48.562;12.108;2023-02-24T09:36:18;40.67;;;28.25;;
26062;SDS011;13837;48.562;12.108;2023-02-24T09:38:52;41.70;;;26.15;;
26062;SDS011;13837;48.562;12.108;2023-02-24T09:41:23;49.20;;;29.02;;
26062;SDS011;13837;48.562;12.108;2023-02-24T09:43:56;46.67;;;28.10;;
26062;SDS011;13837;48.562;12.108;2023-02-24T09:46:28;49.15;;;30.50;;
26062;SDS011;13837;48.562;12.108;2023-02-24T09:48:59;53.45;;;30.63;;
26062;SDS011;13837;48.562;12.108;2023-02-24T09:51:30;41.60;;;28.23;;
26062;SDS011;13837;48.562;12.108;2023-02-24T09:54:24;43.30;;;29.85;;
26062;SDS011;13837;48.562;12.108;2023-02-24T09:56:58;45.92;;;28.73;;
26062;SDS011;13837;48.562;12.108;2023-02-24T10:02:12;43.22;;;27.45;;
26062;SDS011;13837;48.562;12.108;2023-02-24T10:04:51;42.80;;;27.90;;
26062;SDS011;13837;48.562;12.108;2023-02-24T10:07:28;46.00;;;27.75;;
26062;SDS011;13837;48.562;12.108;2023-02-24T10:10:24;42.45;;;27.27;;
26062;SDS011;13837;48.562;12.108;2023-02-24T10:15:42;40.30;;;27.33;;
26062;SDS011;13837;48.562;12.108;2023-02-24T10:20:53;49.67;;;28.58;;
26062;SDS011;13837;48.562;12.108;2023-02-24T10:23:42;41.67;;;26.98;;
26062;SDS011;13837;48.562;12.108;2023-02-24T10:31:49;43.75;;;27.88;;
26062;SDS011;13837;48.562;12.108;2023-02-24T10:34:23;38.50;;;25.42;;
26062;SDS011;13837;48.562;12.108;2023-02-24T10:37:18;42.72;;;26.17;;
26062;SDS011;13837;48.562;12.108;2023-02-24T10:39:43;40.38;;;26.63;;
26062;SDS011;13837;48.562;12.108;2023-02-24T10:42:22;43.08;;;27.25;;
26062;SDS011;13837;48.562;12.108;2023-02-24T10:44:49;46.83;;;29.35;;
26062;SDS011;13837;48.562;12.108;2023-02-24T10:47:17;39.00;;;25.77;;
26062;SDS011;13837;48.562;12.108;2023-02-24T10:49:47;49.72;;;29.02;;
26062;SDS011;13837;48.562;12.108;2023-02-24T10:52:24;44.58;;;28.20;;
26062;SDS011;13837;48.562;12.108;2023-02-24T10:55:13;46.05;;;27.45;;
26062;SDS011;13837;48.562;12.108;2023-02-24T10:58:00;48.90;;;30.58;;
26062;SDS011;13837;48.562;12.108;2023-02-24T11:00:46;45.28;;;27.75;;
26062;SDS011;13837;48.562;12.108;2023-02-24T11:03:26;43.90;;;27.50;;
26062;SDS011;13837;48.562;12.108;2023-02-24T11:06:17;43.25;;;27.80;;
26062;SDS011;13837;48.562;12.108;2023-02-24T11:09:02;46.47;;;29.05;;
26062;SDS011;13837;48.562;12.108;2023-02-24T11:14:56;46.00;;;27.83;;
26062;SDS011;13837;48.562;12.108;2023-02-24T11:17:54;41.97;;;28.13;;
26062;SDS011;13837;48.562;12.108;2023-02-24T11:23:04;45.05;;;27.73;;
26062;SDS011;13837;48.562;12.108;2023-02-24T11:25:40;47.10;;;27.52;;
26062;SDS011;13837;48.562;12.108;2023-02-24T11:28:23;41.30;;;27.52;;
26062;SDS011;13837;48.562;12.108;2023-02-24T11:38:45;44.28;;;28.60;;
26062;SDS011;13837;48.562;12.108;2023-02-24T11:41:19;41.45;;;27.58;;
26062;SDS011;13837;48.562;12.108;2023-02-24T11:46:36;39.15;;;27.30;;
26062;SDS011;13837;48.562;12.108;2023-02-24T11:49:07;41.90;;;27.73;;
26062;SDS011;13837;48.562;12.108;2023-02-24T11:51:34;40.95;;;27.00;;
26062;SDS011;13837;48.562;12.108;2023-02-24T11:54:03;43.40;;;28.05;;
26062;SDS011;13837;48.562;12.108;2023-02-24T11:56:51;40.63;;;27.95;;
26062;SDS011;13837;48.562;12.108;2023-02-24T11:59:21;44.45;;;28.05;;
26062;SDS011;13837;48.562;12.108;2023-02-24T12:02:04;45.70;;;29.08;;
26062;SDS011;13837;48.562;12.108;2023-02-24T12:04:55;43.13;;;27.50;;
26062;SDS011;13837;48.562;12.108;2023-02-24T12:07:36;39.25;;;25.90;;
26062;SDS011;13837;48.562;12.108;2023-02-24T12:12:36;39.88;;;26.92;;
26062;SDS011;13837;48.562;12.108;2023-02-24T12:15:08;39.20;;;26.35;;
26062;SDS011;13837;48.562;12.108;2023-02-24T12:17:43;74.93;;;40.88;;
26062;SDS011;13837;48.562;12.108;2023-02-24T12:20:26;76.63;;;43.28;;
26062;SDS011;13837;48.562;12.108;2023-02-24T12:25:38;42.85;;;27.70;;
26062;SDS011;13837;48.562;12.108;2023-02-24T12:28:16;41.50;;;28.33;;
26062;SDS011;13837;48.562;12.108;2023-02-24T12:47:05;40.50;;;25.92;;
26062;SDS011;13837;48.562;12.108;2023-02-24T12:52:04;46.40;;;27.92;;
26062;SDS011;13837;48.562;12.108;2023-02-24T12:59:33;44.63;;;26.27;;
26062;SDS011;13837;48.562;12.108;2023-02-24T13:02:06;41.40;;;25.27;;
26062;SDS011;13837;48.562;12.108;2023-02-24T13:04:53;44.10;;;27.50;;
26062;SDS011;13837;48.562;12.108;2023-02-24T13:12:35;42.58;;;27.60;;
26062;SDS011;13837;48.562;12.108;2023-02-24T13:15:03;41.17;;;25.98;;
26062;SDS011;13837;48.562;12.108;2023-02-24T13:17:30;38.83;;;25.10;;
26062;SDS011;13837;48.562;12.108;2023-02-24T13:20:07;45.78;;;26.98;;
26062;SDS011;13837;48.562;12.108;2023-02-24T13:22:33;44.25;;;26.60;;
26062;SDS011;13837;48.562;12.108;2023-02-24T13:27:35;38.38;;;25.30;;
26062;SDS011;13837;48.562;12.108;2023-02-24T13:30:24;44.22;;;27.15;;
26062;SDS011;13837;48.562;12.108;2023-02-24T13:35:29;40.47;;;25.20;;
26062;SDS011;13837;48.562;12.108;2023-02-24T13:38:05;41.65;;;25.55;;
26062;SDS011;13837;48.562;12.108;2023-02-24T13:40:32;41.17;;;25.20;;
26062;SDS011;13837;48.562;12.108;2023-02-24T13:45:31;41.38;;;24.42;;
26062;SDS011;13837;48.562;12.108;2023-02-24T13:50:31;44.90;;;25.98;;
26062;SDS011;13837;48.562;12.108;2023-02-24T13:53:07;45.03;;;25.38;;
26062;SDS011;13837;48.562;12.108;2023-02-24T13:55:49;42.72;;;24.45;;
26062;SDS011;13837;48.562;12.108;2023-02-24T13:58:27;43.00;;;26.17;;
26062;SDS011;13837;48.562;12.108;2023-02-24T14:01:07;44.38;;;25.83;;
26062;SDS011;13837;48.562;12.108;2023-02-24T14:03:35;39.40;;;23.73;;
26062;SDS011;13837;48.562;12.108;2023-02-24T14:06:03;40.92;;;23.80;;
26062;SDS011;13837;48.562;12.108;2023-02-24T14:08:35;39.55;;;22.65;;
26062;SDS011;13837;48.562;12.108;2023-02-24T14:11:02;38.78;;;24.05;;
26062;SDS011;13837;48.562;12.108;2023-02-24T14:13:30;43.45;;;23.88;;
26062;SDS011;13837;48.562;12.108;2023-02-24T14:15:58;42.63;;;24.38;;
26062;SDS011;13837;48.562;12.108;2023-02-24T14:18:27;43.58;;;23.90;;
26062;SDS011;13837;48.562;12.108;2023-02-24T14:20:54;52.30;;;26.30;;
26062;SDS011;13837;48.562;12.108;2023-02-24T14:23:22;44.20;;;25.70;;
26062;SDS011;13837;48.562;12.108;2023-02-24T14:25:53;39.13;;;24.50;;
26062;SDS011;13837;48.562;12.108;2023-02-24T14:28:21;37.33;;;22.00;;
26062;SDS011;13837;48.562;12.108;2023-02-24T14:30:54;41.05;;;24.48;;
26062;SDS011;13837;48.562;12.108;2023-02-24T14:33:27;40.80;;;23.10;;
26062;SDS011;13837;48.562;12.108;2023-02-24T14:35:55;43.55;;;23.55;;
26062;SDS011;13837;48.562;12.108;2023-02-24T14:38:33;40.45;;;23.70;;
26062;SDS011;13837;48.562;12.108;2023-02-24T14:41:00;39.83;;;24.33;;
26062;SDS011;13837;48.562;12.108;2023-02-24T14:43:26;40.70;;;22.30;;
26062;SDS011;13837;48.562;12.108;2023-02-24T14:45:53;44.85;;;23.65;;
26062;SDS011;13837;48.562;12.108;2023-02-24T14:48:25;39.20;;;22.90;;
26062;SDS011;13837;48.562;12.108;2023-02-24T14:50:53;36.25;;;22.00;;
26062;SDS011;13837;48.562;12.108;2023-02-24T14:53:20;36.15;;;21.30;;
26062;SDS011;13837;48.562;12.108;2023-02-24T14:55:49;39.25;;;22.90;;
26062;SDS011;13837;48.562;12.108;2023-02-24T15:00:55;37.20;;;22.92;;
26062;SDS011;13837;48.562;12.108;2023-02-24T15:03:23;40.53;;;23.27;;
26062;SDS011;13837;48.562;12.108;2023-02-24T15:05:51;43.30;;;23.55;;
26062;SDS011;13837;48.562;12.108;2023-02-24T15:08:40;39.20;;;24.40;;
26062;SDS011;13837;48.562;12.108;2023-02-24T15:13:41;42.47;;;24.70;;
26062;SDS011;13837;48.562;12.108;2023-02-24T15:16:11;44.78;;;24.30;;
26062;SDS011;13837;48.562;12.108;2023-02-24T15:18:39;39.38;;;24.25;;
26062;SDS011;13837;48.562;12.108;2023-02-24T15:21:06;37.58;;;22.75;;
26062;SDS011;13837;48.562;12.108;2023-02-24T15:23:36;40.38;;;24.50;;
26062;SDS011;13837;48.562;12.108;2023-02-24T15:26:05;39.78;;;24.70;;
26062;SDS011;13837;48.562;12.108;2023-02-24T15:28:35;45.63;;;26.92;;
26062;SDS011;13837;48.562;12.108;2023-02-24T15:36:19;45.50;;;27.30;;
26062;SDS011;13837;48.562;12.108;2023-02-24T15:38:49;42.40;;;25.05;;
26062;SDS011;13837;48.562;12.108;2023-02-24T15:41:16;44.30;;;25.52;;
26062;SDS011;13837;48.562;12.108;2023-02-24T15:48:44;39.17;;;23.38;;
26062;SDS011;13837;48.562;12.108;2023-02-24T15:51:17;39.75;;;23.38;;
26062;SDS011;13837;48.562;12.108;2023-02-24T15:53:45;44.22;;;24.50;;
26062;SDS011;13837;48.562;12.108;2023-02-24T15:56:11;44.53;;;25.90;;
26062;SDS011;13837;48.562;12.108;2023-02-24T15:58:37;52.60;;;27.88;;
26062;SDS011;13837;48.562;12.108;2023-02-24T16:01:07;51.05;;;29.05;;
26062;SDS011;13837;48.562;12.108;2023-02-24T16:03:34;45.40;;;25.42;;
26062;SDS011;13837;48.562;12.108;2023-02-24T16:06:00;46.00;;;26.50;;
26062;SDS011;13837;48.562;12.108;2023-02-24T16:08:26;42.83;;;26.95;;
26062;SDS011;13837;48.562;12.108;2023-02-24T16:10:52;42.13;;;25.42;;
26062;SDS011;13837;48.562;12.108;2023-02-24T16:13:19;41.55;;;26.48;;
26062;SDS011;13837;48.562;12.108;2023-02-24T16:15:46;46.53;;;26.92;;
26062;SDS011;13837;48.562;12.108;2023-02-24T16:18:13;45.25;;;25.85;;
26062;SDS011;13837;48.562;12.108;2023-02-24T16:20:43;43.25;;;26.58;;
26062;SDS011;13837;48.562;12.108;2023-02-24T16:23:13;43.17;;;26.98;;
26062;SDS011;13837;48.562;12.108;2023-02-24T16:25:40;42.53;;;26.60;;
26062;SDS011;13837;48.562;12.108;2023-02-24T16:28:16;40.30;;;24.75;;
26062;SDS011;13837;48.562;12.108;2023-02-24T16:30:43;41.25;;;25.80;;
26062;SDS011;13837;48.562;12.108;2023-02-24T16:33:12;52.42;;;27.33;;
26062;SDS011;13837;48.562;12.108;2023-02-24T16:35:39;41.55;;;26.33;;
26062;SDS011;13837;48.562;12.108;2023-02-24T16:38:16;43.22;;;26.23;;
26062;SDS011;13837;48.562;12.108;2023-02-24T16:40:43;43.60;;;26.05;;
26062;SDS011;13837;48.562;12.108;2023-02-24T16:43:10;44.28;;;27.48;;
26062;SDS011;13837;48.562;12.108;2023-02-24T16:45:37;44.78;;;26.90;;
26062;SDS011;13837;48.562;12.108;2023-02-24T16:48:05;43.97;;;27.17;;
26062;SDS011;13837;48.562;12.108;2023-02-24T16:50:33;45.72;;;28.45;;
26062;SDS011;13837;48.562;12.108;2023-02-24T16:53:00;48.55;;;28.30;;
26062;SDS011;13837;48.562;12.108;2023-02-24T16:55:26;40.10;;;26.10;;
26062;SDS011;13837;48.562;12.108;2023-02-24T16:57:52;45.97;;;27.83;;
26062;SDS011;13837;48.562;12.108;2023-02-24T17:00:18;44.45;;;26.38;;